createdAt,value
2022-08-18T00:00:57.229Z,98231.88
2022-08-18T00:03:27.154Z,98222.31
2022-08-18T00:06:10.736Z,98218.97
2022-08-18T00:08:38.670Z,98205.41
2022-08-18T00:11:06.432Z,98206.03
2022-08-18T00:13:33.161Z,98221.13
2022-08-18T00:15:59.753Z,98220.25
2022-08-18T00:18:26.311Z,98214.25
2022-08-18T00:20:53.107Z,98216.25
2022-08-18T00:25:38.144Z,98214.19
2022-08-18T00:28:05.881Z,98209.81
2022-08-18T00:30:32.775Z,98214.31
2022-08-18T00:33:01.337Z,98224.13
2022-08-18T00:35:34.834Z,98220.63
2022-08-18T00:38:04.239Z,98221.63
2022-08-18T00:40:38.961Z,98219.94
2022-08-18T00:43:08.189Z,98221.78
2022-08-18T00:45:43.043Z,98216.28
2022-08-18T00:48:11.275Z,98211.94
2022-08-18T00:51:07.548Z,98210.13
2022-08-18T00:53:42.068Z,98202.97
2022-08-18T00:56:13.527Z,98212.09
2022-08-18T00:58:52.088Z,98214.94
2022-08-18T01:01:25.979Z,98209.22
2022-08-18T01:03:58.552Z,98208.09
2022-08-18T01:06:33.208Z,98208.09
2022-08-18T01:09:00.300Z,98199.91
2022-08-18T01:11:28.165Z,98190.69
2022-08-18T01:13:55.316Z,98178.69
2022-08-18T01:16:52.359Z,98190.25
2022-08-18T01:19:43.045Z,98191.47
2022-08-18T01:22:49.765Z,98186.97
2022-08-18T01:25:38.268Z,98187.66
2022-08-18T01:28:05.789Z,98183.16
2022-08-18T01:30:44.123Z,98181.19
2022-08-18T01:33:12.265Z,98183.53
2022-08-18T01:35:43.193Z,98186.09
2022-08-18T01:41:23.172Z,98189.56
2022-08-18T01:43:19.056Z,98175.72
2022-08-18T01:45:45.753Z,98185.97
2022-08-18T01:48:12.376Z,98193.69
2022-08-18T01:50:41.296Z,98188.66
2022-08-18T01:53:08.451Z,98186.28
2022-08-18T01:55:37.056Z,98180.28
2022-08-18T01:58:04.785Z,98186.88
2022-08-18T02:00:32.370Z,98195.91
2022-08-18T02:03:02.628Z,98193.38
2022-08-18T02:05:36.457Z,98192.53
2022-08-18T02:08:05.445Z,98182.69
2022-08-18T02:10:33.425Z,98185.38
2022-08-18T02:13:00.109Z,98178.22
2022-08-18T02:15:28.070Z,98170.22
2022-08-18T02:17:54.767Z,98167.84
2022-08-18T02:20:21.626Z,98167.56
2022-08-18T02:22:49.526Z,98168.53
2022-08-18T02:25:17.438Z,98174.88
2022-08-18T02:27:45.866Z,98155.47
2022-08-18T02:30:15.522Z,98169.16
2022-08-18T02:32:42.577Z,98162.31
2022-08-18T02:35:11.802Z,98171.47
2022-08-18T02:37:42.759Z,98146.84
2022-08-18T02:40:15.498Z,98138.03
2022-08-18T02:42:44.383Z,98156.63
2022-08-18T02:45:12.731Z,98154.06
2022-08-18T02:47:39.855Z,98154.41
2022-08-18T02:50:07.901Z,98158.22
2022-08-18T02:52:38.369Z,98158.66
2022-08-18T02:55:07.599Z,98150.13
2022-08-18T02:57:34.244Z,98155.78
2022-08-18T03:00:00.818Z,98151.56
2022-08-18T03:02:27.785Z,98146.56
2022-08-18T03:04:54.354Z,98152.06
2022-08-18T03:07:21.068Z,98150.38
2022-08-18T03:09:47.622Z,98159.50
2022-08-18T03:12:14.238Z,98163.16
2022-08-18T03:14:40.824Z,98165.81
2022-08-18T03:17:09.401Z,98170.16
2022-08-18T03:19:36.762Z,98170.97
2022-08-18T03:22:05.856Z,98172.66
2022-08-18T03:24:52.572Z,98178.81
2022-08-18T03:27:19.182Z,98183.88
2022-08-18T03:29:45.742Z,98181.03
2022-08-18T03:32:12.327Z,98184.69
2022-08-18T03:34:39.020Z,98182.19
2022-08-18T03:37:05.682Z,98191.31
2022-08-18T03:39:32.493Z,98186.72
2022-08-18T03:42:01.594Z,98194.44
2022-08-18T03:44:36.596Z,98193.75
2022-08-18T03:47:04.299Z,98198.22
2022-08-18T03:52:00.621Z,98208.03
2022-08-18T03:54:28.477Z,98205.66
2022-08-18T03:56:55.979Z,98210.28
2022-08-18T03:59:25.447Z,98214.09
2022-08-18T04:01:54.923Z,98218.59
2022-08-18T04:04:25.054Z,98213.41
2022-08-18T04:06:58.445Z,98217.06
2022-08-18T04:09:28.040Z,98226.03
2022-08-18T04:11:55.417Z,98222.66
2022-08-18T04:14:24.957Z,98226.34
2022-08-18T04:16:52.093Z,98224.50
2022-08-18T04:19:27.367Z,98224.50
2022-08-18T04:21:58.304Z,98227.16
2022-08-18T04:24:28.138Z,98229.69
2022-08-18T04:27:00.985Z,98234.19
2022-08-18T04:29:29.185Z,98213.22
2022-08-18T04:31:56.122Z,98234.19
2022-08-18T04:34:22.930Z,98234.19
2022-08-18T04:36:53.852Z,98237.00
2022-08-18T04:39:21.795Z,98235.97
2022-08-18T04:44:07.424Z,98235.84
2022-08-18T04:46:49.531Z,98240.50
2022-08-18T04:49:18.891Z,98246.50
2022-08-18T04:54:16.364Z,98242.56
2022-08-18T04:56:43.543Z,98251.91
2022-08-18T04:59:14.276Z,98249.69
2022-08-18T05:01:47.519Z,98258.19
2022-08-18T05:04:16.201Z,98250.63
2022-08-18T05:06:44.797Z,98252.00
2022-08-18T05:09:16.880Z,98257.72
2022-08-18T05:11:51.009Z,98264.56
2022-08-18T05:14:18.651Z,98253.78
2022-08-18T05:16:48.138Z,98248.28
2022-08-18T05:19:21.869Z,98248.28
2022-08-18T05:21:52.183Z,98259.75
2022-08-18T05:24:20.676Z,98256.94
2022-08-18T05:26:48.962Z,98261.28
2022-08-18T05:31:29.009Z,98263.84
2022-08-18T05:36:43.589Z,98257.63
2022-08-18T05:39:25.145Z,98266.50
2022-08-18T05:42:07.562Z,98256.94
2022-08-18T05:44:43.060Z,98259.31
2022-08-18T05:47:16.126Z,98263.66
2022-08-18T05:49:49.092Z,98262.38
2022-08-18T05:52:27.636Z,98257.72
2022-08-18T05:57:22.450Z,98255.59
2022-08-18T05:59:53.812Z,98247.22
2022-08-18T06:02:38.568Z,98253.31
2022-08-18T06:05:12.767Z,98257.50
2022-08-18T06:07:49.121Z,98265.22
2022-08-18T06:10:16.276Z,98258.75
2022-08-18T06:12:53.491Z,98260.25
2022-08-18T06:15:33.925Z,98257.44
2022-08-18T06:18:26.501Z,98252.78
2022-08-18T06:21:04.917Z,98262.31
2022-08-18T06:23:40.487Z,98260.47
2022-08-18T06:26:18.406Z,98261.34
2022-08-18T06:29:05.241Z,98259.38
2022-08-18T06:32:01.259Z,98261.75
2022-08-18T06:35:12.031Z,98260.75
2022-08-18T06:38:19.061Z,98259.72
2022-08-18T06:40:48.697Z,98255.25
2022-08-18T06:43:17.113Z,98263.09
2022-08-18T06:45:51.812Z,98260.25
2022-08-18T06:48:37.631Z,98275.16
2022-08-18T06:51:07.845Z,98270.47
2022-08-18T06:54:01.710Z,98277.50
2022-08-18T06:56:34.996Z,98284.50
2022-08-18T06:59:16.145Z,98286.03
2022-08-18T07:01:44.263Z,98286.72
2022-08-18T07:04:33.612Z,98286.56
2022-08-18T07:07:13.553Z,98289.94
2022-08-18T07:09:40.431Z,98294.25
2022-08-18T07:12:09.404Z,98291.44
2022-08-18T07:14:52.565Z,98293.13
2022-08-18T07:17:42.471Z,98290.75
2022-08-18T07:20:31.244Z,98290.31
2022-08-18T07:23:01.026Z,98291.81
2022-08-18T07:25:46.653Z,98283.81
2022-08-18T07:28:33.777Z,98291.50
2022-08-18T07:31:25.005Z,98290.50
2022-08-18T07:36:19.544Z,98284.03
2022-08-18T07:41:38.789Z,98285.72
2022-08-18T07:44:16.431Z,98286.56
2022-08-18T07:46:58.661Z,98281.88
2022-08-18T07:49:33.399Z,98282.75
2022-08-18T07:52:36.164Z,98258.50
2022-08-18T07:55:29.007Z,98268.91
2022-08-18T07:58:23.408Z,98264.97
2022-08-18T08:01:09.537Z,98267.28
2022-08-18T08:04:25.486Z,98265.16
2022-08-18T08:07:23.968Z,98265.69
2022-08-18T08:10:00.429Z,98262.75
2022-08-18T08:12:39.928Z,98270.44
2022-08-18T08:15:27.626Z,98269.28
2022-08-18T08:18:18.558Z,98265.63
2022-08-18T08:20:57.536Z,98255.63
2022-08-18T08:23:46.019Z,98259.97
2022-08-18T08:26:21.724Z,98259.81
2022-08-18T08:28:55.919Z,98265.00
2022-08-18T08:33:50.325Z,98238.22
2022-08-18T08:36:25.681Z,98247.97
2022-08-18T08:38:58.101Z,98253.69
2022-08-18T08:41:36.089Z,98253.47
2022-08-18T08:44:21.540Z,98272.88
2022-08-18T08:47:13.033Z,98276.25
2022-08-18T08:50:00.409Z,98271.22
2022-08-18T08:52:35.167Z,98287.47
2022-08-18T08:55:14.739Z,98287.28
2022-08-18T08:57:49.780Z,98284.47
2022-08-18T09:00:16.794Z,98286.13
2022-08-18T09:02:52.257Z,98298.50
2022-08-18T09:05:24.912Z,98289.97
2022-08-18T09:08:20.182Z,98293.69
2022-08-18T09:11:08.478Z,98284.69
2022-08-18T09:14:08.414Z,98296.19
2022-08-18T09:16:49.120Z,98294.19
2022-08-18T09:19:59.232Z,98296.72
2022-08-18T09:22:42.310Z,98284.19
2022-08-18T09:25:11.373Z,98289.38
2022-08-18T09:28:10.060Z,98288.41
2022-08-18T09:30:55.196Z,98294.41
2022-08-18T09:33:40.648Z,98289.06
2022-08-18T09:36:21.101Z,98287.06
2022-08-18T09:39:18.586Z,98293.22
2022-08-18T09:42:01.688Z,98287.59
2022-08-18T09:44:48.680Z,98295.44
2022-08-18T09:47:22.227Z,98291.78
2022-08-18T09:50:26.946Z,98293.22
2022-08-18T09:52:57.759Z,98296.94
2022-08-18T09:55:24.408Z,98296.81
2022-08-18T09:58:14.972Z,98302.03
2022-08-18T10:00:46.540Z,98290.34
2022-08-18T10:03:25.731Z,98285.13
2022-08-18T10:06:05.100Z,98282.16
2022-08-18T10:09:14.723Z,98282.81
2022-08-18T10:12:40.318Z,98277.47
2022-08-18T10:15:13.128Z,98282.69
2022-08-18T10:18:01.645Z,98271.81
2022-08-18T10:20:47.641Z,98251.78
2022-08-18T10:25:34.287Z,98246.59
2022-08-18T10:28:05.393Z,98250.78
2022-08-18T10:30:56.264Z,98255.97
2022-08-18T10:33:56.977Z,98261.31
2022-08-18T10:36:58.967Z,98267.34
2022-08-18T10:42:33.672Z,98263.69
2022-08-18T10:45:12.445Z,98262.50
2022-08-18T10:47:42.843Z,98263.34
2022-08-18T10:50:23.004Z,98251.66
2022-08-18T10:53:40.553Z,98247.16
2022-08-18T10:56:16.868Z,98248.66
2022-08-18T10:59:08.427Z,98247.69
2022-08-18T11:02:16.457Z,98240.31
2022-08-18T11:07:38.718Z,98228.63
2022-08-18T11:13:46.628Z,98227.31
2022-08-18T11:16:37.882Z,98232.50
2022-08-18T11:19:12.758Z,98237.66
2022-08-18T11:21:43.415Z,98222.63
2022-08-18T11:24:13.448Z,98226.81
2022-08-18T11:30:12.068Z,98230.00
2022-08-18T11:32:51.439Z,98219.13
2022-08-18T11:35:21.908Z,98214.63
2022-08-18T11:37:56.117Z,98207.44
2022-08-18T11:43:41.700Z,98202.75
2022-08-18T11:46:29.362Z,98203.44
2022-08-18T11:49:00.029Z,98206.94
2022-08-18T11:51:32.244Z,98204.09
2022-08-18T11:54:01.011Z,98204.78
2022-08-18T11:59:52.981Z,98195.75
2022-08-18T12:02:17.465Z,98198.25
2022-08-18T12:04:44.647Z,98198.94
2022-08-18T12:07:20.500Z,98197.94
2022-08-18T12:10:28.421Z,98184.44
2022-08-18T12:12:57.529Z,98182.59
2022-08-18T12:15:46.588Z,98173.56
2022-08-18T12:18:26.473Z,98169.88
2022-08-18T12:21:05.405Z,98162.53
2022-08-18T12:23:39.095Z,98115.03
2022-08-18T12:26:27.344Z,98161.53
2022-08-18T12:29:01.230Z,98153.34
2022-08-18T12:31:29.140Z,98156.84
2022-08-18T12:37:00.812Z,98148.50
2022-08-18T12:39:28.508Z,98147.50
2022-08-18T12:41:56.214Z,98141.97
2022-08-18T12:44:29.157Z,98137.44
2022-08-18T12:46:56.040Z,98138.44
2022-08-18T12:49:25.498Z,98143.31
2022-08-18T12:54:55.557Z,98143.31
2022-08-18T12:57:33.499Z,98149.97
2022-08-18T13:00:18.748Z,98148.97
2022-08-18T13:02:45.806Z,98147.97
2022-08-18T13:05:12.505Z,98147.81
2022-08-18T13:09:54.654Z,98145.81
2022-08-18T13:12:22.469Z,98139.47
2022-08-18T13:19:33.393Z,98148.16
2022-08-18T13:22:00.468Z,98145.31
2022-08-18T13:24:27.424Z,98146.13
2022-08-18T13:26:55.497Z,98154.00
2022-08-18T13:29:22.220Z,98154.84
2022-08-18T13:31:55.840Z,98143.97
2022-08-18T13:34:29.831Z,98154.47
2022-08-18T13:36:57.440Z,98158.00
2022-08-18T13:39:24.830Z,98156.84
2022-08-18T13:42:01.381Z,98160.34
2022-08-18T13:44:52.864Z,98162.00
2022-08-18T13:47:20.161Z,98159.34
2022-08-18T13:49:57.986Z,98168.22
2022-08-18T13:52:34.847Z,98171.91
2022-08-18T13:55:08.368Z,98174.56
2022-08-18T13:57:36.741Z,98176.38
2022-08-18T14:00:06.442Z,98175.38
2022-08-18T14:02:40.427Z,98157.34
2022-08-18T14:05:09.331Z,98164.53
2022-08-18T14:07:38.393Z,98166.38
2022-08-18T14:10:13.292Z,98175.22
2022-08-18T14:12:41.309Z,98183.09
2022-08-18T14:15:11.838Z,98173.38
2022-08-18T14:17:39.257Z,98177.25
2022-08-18T14:20:27.586Z,98168.22
2022-08-18T14:23:21.807Z,98172.22
2022-08-18T14:26:09.934Z,98179.25
2022-08-18T14:28:38.450Z,98175.56
2022-08-18T14:31:08.603Z,98173.72
2022-08-18T14:33:50.577Z,98170.03
2022-08-18T14:36:19.544Z,98176.06
2022-08-18T14:38:46.418Z,98170.53
2022-08-18T14:41:19.137Z,98163.34
2022-08-18T14:44:11.473Z,98167.69
2022-08-18T14:46:34.719Z,98153.31
2022-08-18T14:49:03.920Z,98143.09
2022-08-18T14:51:33.641Z,98141.78
2022-08-18T14:54:01.985Z,98131.06
2022-08-18T14:56:29.733Z,98139.91
2022-08-18T14:59:01.000Z,98141.59
2022-08-18T15:01:27.782Z,98136.56
2022-08-18T15:04:18.604Z,98137.94
2022-08-18T15:06:56.555Z,98147.63
2022-08-18T15:09:26.997Z,98137.06
2022-08-18T15:11:56.343Z,98136.09
2022-08-18T15:14:33.118Z,98140.63
2022-08-18T15:17:11.849Z,98145.09
2022-08-18T15:19:58.373Z,98141.28
2022-08-18T15:22:45.012Z,98107.34
2022-08-18T15:25:30.183Z,98140.63
2022-08-18T15:27:57.655Z,98141.59
2022-08-18T15:30:26.321Z,98142.41
2022-08-18T15:32:53.799Z,98135.28
2022-08-18T15:35:20.630Z,98136.91
2022-08-18T15:37:51.096Z,98139.44
2022-08-18T15:40:30.836Z,98142.94
2022-08-18T15:43:09.710Z,98100.31
2022-08-18T15:45:42.917Z,98122.19
2022-08-18T15:48:12.611Z,98135.59
2022-08-18T15:50:40.428Z,98140.75
2022-08-18T15:53:11.532Z,98143.25
2022-08-18T15:55:40.648Z,98143.25
2022-08-18T15:58:11.215Z,98141.44
2022-08-18T16:00:42.683Z,98137.56
2022-08-18T16:03:14.410Z,98142.06
2022-08-18T16:05:53.440Z,98142.06
2022-08-18T16:08:23.543Z,98137.56
2022-08-18T16:10:50.823Z,98131.38
2022-08-18T16:13:17.869Z,98133.22
2022-08-18T16:15:48.071Z,98133.22
2022-08-18T16:18:18.640Z,98123.03
2022-08-18T16:20:45.977Z,98124.53
2022-08-18T16:23:13.648Z,98126.88
2022-08-18T16:25:42.133Z,98117.16
2022-08-18T16:28:09.467Z,98121.69
2022-08-18T16:30:36.316Z,98111.00
2022-08-18T16:33:04.892Z,98118.00
2022-08-18T16:35:33.088Z,98128.53
2022-08-18T16:38:05.768Z,98114.97
2022-08-18T16:40:35.193Z,98121.34
2022-08-18T16:43:01.799Z,98129.38
2022-08-18T16:45:28.747Z,98124.38
2022-08-18T16:47:55.625Z,98130.03
2022-08-18T16:50:23.529Z,98133.53
2022-08-18T16:52:50.199Z,98137.06
2022-08-18T16:55:17.049Z,98130.69
2022-08-18T16:58:03.075Z,98129.88
2022-08-18T17:00:54.465Z,98130.69
2022-08-18T17:05:43.139Z,98133.53
2022-08-18T17:08:09.763Z,98122.66
2022-08-18T17:10:37.909Z,98117.28
2022-08-18T17:13:06.446Z,98116.47
2022-08-18T17:15:33.777Z,98110.13
2022-08-18T17:18:01.228Z,98115.47
2022-08-18T17:20:27.846Z,98108.25
2022-08-18T17:22:55.315Z,98110.94
2022-08-18T17:25:24.979Z,98101.22
2022-08-18T17:27:51.747Z,98108.25
2022-08-18T17:30:22.679Z,98101.22
2022-08-18T17:32:54.932Z,98108.13
2022-08-18T17:38:11.890Z,98100.41
2022-08-18T17:41:07.649Z,98112.13
2022-08-18T17:43:38.162Z,98114.97
2022-08-18T17:46:27.080Z,98114.16
2022-08-18T17:49:05.925Z,98113.31
2022-08-18T17:51:44.387Z,98120.34
2022-08-18T17:54:36.399Z,98119.50
2022-08-18T17:57:13.895Z,98125.19
2022-08-18T18:00:13.841Z,98130.72
2022-08-18T18:02:42.581Z,98132.59
2022-08-18T18:05:14.265Z,98153.47
2022-08-18T18:10:14.317Z,98134.38
2022-08-18T18:12:41.452Z,98136.75
2022-08-18T18:15:11.907Z,98053.84
2022-08-18T18:17:43.287Z,98160.66
2022-08-18T18:20:40.384Z,98170.53
2022-08-18T18:23:19.452Z,98171.72
2022-08-18T18:25:46.396Z,98168.19
2022-08-18T18:28:34.215Z,98173.53
2022-08-18T18:31:21.461Z,98177.25
2022-08-18T18:33:55.993Z,98174.56
2022-08-18T18:36:35.150Z,98173.72
2022-08-18T18:39:14.697Z,98182.75
2022-08-18T18:41:41.696Z,98177.25
2022-08-18T18:44:10.664Z,98182.41
2022-08-18T18:46:49.424Z,98172.72
2022-08-18T18:49:26.670Z,98176.22
2022-08-18T18:52:19.253Z,98178.06
2022-08-18T18:55:14.704Z,98175.38
2022-08-18T18:58:11.356Z,98165.69
2022-08-18T19:00:53.561Z,98167.69
2022-08-18T19:03:28.684Z,98170.53
2022-08-18T19:06:08.232Z,98171.72
2022-08-18T19:08:39.558Z,98163.38
2022-08-18T19:11:19.345Z,98160.19
2022-08-18T19:13:57.876Z,98155.16
2022-08-18T19:16:33.807Z,98157.84
2022-08-18T19:19:36.948Z,98151.84
2022-08-18T19:22:06.711Z,98135.94
2022-08-18T19:24:40.768Z,98141.97
2022-08-18T19:27:17.675Z,98136.59
2022-08-18T19:29:53.300Z,98135.94
2022-08-18T19:32:35.869Z,98120.06
2022-08-18T19:35:10.563Z,98126.41
2022-08-18T19:37:47.979Z,98105.34
2022-08-18T19:40:26.420Z,98115.56
2022-08-18T19:42:58.555Z,98106.03
2022-08-18T19:45:36.552Z,98107.03
2022-08-18T19:48:39.296Z,98095.34
2022-08-18T19:51:26.816Z,98089.97
2022-08-18T19:53:59.156Z,98084.63
2022-08-18T19:56:47.349Z,98094.34
2022-08-18T19:59:34.032Z,98104.34
2022-08-18T20:02:29.181Z,98088.97
2022-08-18T20:05:18.585Z,98090.34
2022-08-18T20:08:15.493Z,98094.31
2022-08-18T20:11:41.835Z,98078.78
2022-08-18T20:14:15.045Z,98068.72
2022-08-18T20:16:44.904Z,98080.78
2022-08-18T20:19:50.036Z,98071.44
2022-08-18T20:22:22.041Z,98086.09
2022-08-18T20:24:59.629Z,98079.25
2022-08-18T20:27:39.788Z,98076.09
2022-08-18T20:30:50.613Z,98080.78
2022-08-18T20:33:30.571Z,98083.59
2022-08-18T20:36:24.101Z,98080.09
2022-08-18T20:38:54.529Z,98071.25
2022-08-18T20:41:26.446Z,98083.59
2022-08-18T20:44:13.209Z,98083.59
2022-08-18T20:46:56.893Z,98079.78
2022-08-18T20:49:45.028Z,98082.59
2022-08-18T20:52:29.542Z,98087.28
2022-08-18T20:55:30.789Z,98070.56
2022-08-18T20:58:05.585Z,98082.63
2022-08-18T21:00:37.379Z,98087.28
2022-08-18T21:03:12.539Z,98091.13
2022-08-18T21:05:43.631Z,98098.47
2022-08-18T21:08:16.511Z,98095.09
2022-08-18T21:10:52.251Z,98092.59
2022-08-18T21:13:31.093Z,98091.97
2022-08-18T21:15:59.289Z,98072.38
2022-08-18T21:18:27.032Z,98076.06
2022-08-18T21:20:57.943Z,98075.06
2022-08-18T21:23:39.229Z,98072.91
2022-08-18T21:26:14.670Z,98069.75
2022-08-18T21:28:46.052Z,98076.59
2022-08-18T21:31:42.575Z,98069.25
2022-08-18T21:34:28.517Z,98062.75
2022-08-18T21:36:57.978Z,98064.41
2022-08-18T21:39:25.251Z,98070.41
2022-08-18T21:41:55.055Z,98059.22
2022-08-18T21:44:24.895Z,98070.22
2022-08-18T21:47:05.503Z,98066.91
2022-08-18T21:49:33.901Z,98071.91
2022-08-18T21:52:00.839Z,98071.91
2022-08-18T21:54:34.551Z,98065.56
2022-08-18T21:57:18.489Z,98072.25
2022-08-18T22:00:20.521Z,98082.59
2022-08-18T22:02:51.090Z,98077.25
2022-08-18T22:05:58.578Z,98079.09
2022-08-18T22:08:46.611Z,98073.94
2022-08-18T22:12:01.084Z,98085.44
2022-08-18T22:14:35.857Z,98081.09
2022-08-18T22:17:52.045Z,98079.59
2022-08-18T22:20:39.812Z,98082.63
2022-08-18T22:23:34.074Z,98072.94
2022-08-18T22:26:17.569Z,98079.94
2022-08-18T22:28:52.930Z,98080.25
2022-08-18T22:31:21.510Z,98077.09
2022-08-18T22:33:50.311Z,98087.25
2022-08-18T22:36:25.465Z,98085.94
2022-08-18T22:38:52.408Z,98089.94
2022-08-18T22:41:20.411Z,98084.88
2022-08-18T22:43:48.409Z,98085.22
2022-08-18T22:46:21.665Z,98087.22
2022-08-18T22:48:52.210Z,98076.84
2022-08-18T22:51:22.403Z,98085.50
2022-08-18T22:53:48.963Z,98091.22
2022-08-18T22:56:15.569Z,98089.84
2022-08-18T22:58:49.401Z,98078.00
2022-08-18T23:01:17.903Z,98058.59
2022-08-18T23:03:44.554Z,98073.47
2022-08-18T23:08:32.307Z,98068.28
2022-08-18T23:11:12.668Z,98065.47
2022-08-18T23:13:40.929Z,98063.94
2022-08-18T23:16:30.892Z,98067.63
2022-08-18T23:18:56.324Z,98072.09
2022-08-18T23:21:35.121Z,98064.56
2022-08-18T23:24:06.439Z,98073.63
2022-08-18T23:26:34.292Z,98068.59
2022-08-18T23:29:01.748Z,98058.88
2022-08-18T23:31:30.295Z,98072.88
2022-08-18T23:33:58.853Z,98068.88
2022-08-18T23:36:25.530Z,98066.66
2022-08-18T23:38:54.001Z,98074.16
2022-08-18T23:41:21.639Z,98067.47
2022-08-18T23:43:49.392Z,98061.56
2022-08-18T23:46:22.001Z,98077.09
2022-08-18T23:48:52.863Z,98078.28
2022-08-18T23:51:34.756Z,98069.56
2022-08-18T23:54:07.671Z,98058.09
2022-08-18T23:56:35.591Z,98059.25
